Prospect, Indiana
Current Conditions -  °F | °C
As of 1:15 AM on Sunday 21 Dec 2014 (Local Time) from KDCY Reporting Station
Haze Haze  
Wind Chill: 26°   Ceiling: Unl
Heat Index: 26°   Visibility: 4mi
Dew Point: 22°   Wind: 0mph
Humidity: 88%   Direction: NA
Pressure: 30.29"   Gusts: NA
Location:  38.6165°N, 86.6265°W
Report Text: KDCY 210615Z AUTO 00000KT 4SM BR CLR M03/M05 A3029 RMK AO2 T10351053
Loading
Personal Weather Stations






























Interactive Weather Map New forecast layout! Learn more

10-Day Weather Forecast

Advertisements
Track Severe Weather on mobile